Time;durP1;ratioP1;P1;durP2;ratioP2;P2;SDS_P1;SDS_P2;PMS_P1;PMS_P2;Temp;Humidity;BMP_temperature;BMP_pressure;BME280_temperature;BME280_humidity;BME280_pressure;Samples;Min_cycle;Max_cycle;Signal;HPM_P1;HPM_P2
2022/11/26 00:01:13;;;;;;;;;;;;;;;4.7;100;102582.1;;;;-76
2022/11/26 00:06:21;;;;;;;;;;;;;;;4.71;100;102583.2;;;;-76
2022/11/26 00:07:35;;;;;;;10.8;2.6;;;;;;;;;;;;;-76
2022/11/26 00:11:24;;;;;;;;;;;;;;;4.72;100;102589;;;;-76
2022/11/26 00:16:14;;;;;;;;;;;;;;;4.75;100;102591.4;;;;-77
2022/11/26 00:26:18;;;;;;;;;;;;;;;4.74;100;102601.9;;;;-77
2022/11/26 00:31:11;;;;;;;;;;;;;;;4.75;100;102600.8;;;;-77
2022/11/26 00:38:23;;;;;;;;;;;;;;;4.72;100;102609.8;;;;-77
2022/11/26 00:54:38;;;;;;;;;;;;;;;4.86;100;102617.4;;;;-74
2022/11/26 01:00:43;;;;;;;;;;;;;;;4.79;100;102621.5;;;;-77
2022/11/26 01:07:53;;;;;;;7.1;2.5;;;;;;;;;;;;;-78
2022/11/26 01:10:19;;;;;;;;;;;;;;;4.67;100;102616.4;;;;-75
2022/11/26 01:19:43;;;;;;;;;;;;;;;4.62;100;102617;;;;-76
2022/11/26 01:25:16;;;;;;;;;;;;;;;4.63;100;102619.8;;;;-77
2022/11/26 01:26:51;;;;;;;;;;;;;;;4.67;100;102618.7;;;;-74
2022/11/26 01:29:51;;;;;;;;;;;;;;;4.63;100;102623.9;;;;-76
2022/11/26 01:32:49;;;;;;;;;;;;;;;4.54;100;102621.9;;;;-75
2022/11/26 01:42:45;;;;;;;;;;;;;;;4.48;100;102631.6;;;;-77
2022/11/26 01:47:35;;;;;;;;;;;;;;;4.48;100;102637.1;;;;-77
2022/11/26 01:52:38;;;;;;;;;;;;;;;4.44;100;102642.6;;;;-76
2022/11/26 01:57:37;;;;;;;;;;;;;;;4.39;100;102644.8;;;;-75
2022/11/26 02:02:29;;;;;;;;;;;;;;;4.4;100;102648.3;;;;-75
2022/11/26 02:07:22;;;;;;;7.1;2.2;;;;;;;;;;;;;-76
2022/11/26 02:07:34;;;;;;;;;;;;;;;4.35;100;102653.9;;;;-76
2022/11/26 02:12:28;;;;;;;;;;;;;;;4.33;100;102647.6;;;;-77
2022/11/26 02:17:33;;;;;;;;;;;;;;;4.29;100;102650.9;;;;-77
2022/11/26 02:22:37;;;;;;;;;;;;;;;4.32;100;102649.5;;;;-76
2022/11/26 02:27:49;;;;;;;;;;;;;;;4.27;100;102650.9;;;;-76
2022/11/26 02:32:33;;;;;;;;;;;;;;;4.26;100;102650.1;;;;-76
2022/11/26 02:37:23;;;;;;;7.9;2.2;;;;;;;;;;;;;-76
2022/11/26 02:37:35;;;;;;;;;;;;;;;4.2;100;102649.5;;;;-76
2022/11/26 02:42:32;;;;;;;;;;;;;;;4.2;100;102656.3;;;;-75
2022/11/26 02:47:29;;;;;;;;;;;;;;;4.16;100;102662.3;;;;-76
2022/11/26 02:52:30;;;;;;;;;;;;;;;4.14;100;102663.6;;;;-76
2022/11/26 02:57:30;;;;;;;;;;;;;;;4.13;100;102662.5;;;;-77
2022/11/26 03:02:29;;;;;;;;;;;;;;;4.14;100;102666.1;;;;-76
2022/11/26 03:07:20;;;;;;;10.6;2.9;;;;;;;;;;;;;-77
2022/11/26 03:07:31;;;;;;;;;;;;;;;4.17;100;102669.4;;;;-77
2022/11/26 03:12:28;;;;;;;;;;;;;;;4.17;100;102671.1;;;;-76
2022/11/26 03:17:29;;;;;;;;;;;;;;;4.19;100;102677.3;;;;-77
2022/11/26 03:22:30;;;;;;;;;;;;;;;4.25;100;102681;;;;-76
2022/11/26 03:32:27;;;;;;;;;;;;;;;4.27;100;102685.5;;;;-75
2022/11/26 03:37:19;;;;;;;6;2.1;;;;;;;;;;;;;-76
2022/11/26 03:37:29;;;;;;;;;;;;;;;4.24;100;102694.3;;;;-76
2022/11/26 03:42:28;;;;;;;;;;;;;;;4.28;100;102696.1;;;;-76
2022/11/26 03:47:30;;;;;;;;;;;;;;;4.29;100;102693.3;;;;-78
2022/11/26 03:52:28;;;;;;;;;;;;;;;4.3;100;102705.3;;;;-76
2022/11/26 03:55:10;;;;;;;;;;;;;;;4.37;100;102703.3;;;;-75
2022/11/26 03:58:20;;;;;;;;;;;;;;;4.32;100;102709.3;;;;-76
2022/11/26 04:07:33;;;;;;;5.6;2.2;;;;;;;;;;;;;-76
2022/11/26 04:08:32;;;;;;;;;;;;;;;4.36;100;102706.6;;;;-77
2022/11/26 04:13:11;;;;;;;;;;;;;;;4.36;100;102704.6;;;;-75
2022/11/26 04:23:19;;;;;;;;;;;;;;;4.41;100;102720.1;;;;-76
2022/11/26 04:28:10;;;;;;;;;;;;;;;4.41;100;102713.7;;;;-77
2022/11/26 04:49:10;;;;;;;;;;;;;;;4.49;100;102715;;;;-76
2022/11/26 04:56:53;;;;;;;;;;;;;;;4.42;100;102722.4;;;;-77
2022/11/26 05:01:50;;;;;;;;;;;;;;;4.39;100;102724.1;;;;-78
2022/11/26 05:16:52;;;;;;;;;;;;;;;4.36;100;102744.7;;;;-77
2022/11/26 05:30:58;;;;;;;;;;;;;;;4.29;100;102751.3;;;;-76
2022/11/26 05:35:51;;;;;;;;;;;;;;;4.34;100;102753.1;;;;-75
2022/11/26 05:37:42;;;;;;;7.4;2.3;;;;;;;;;;;;;-76
2022/11/26 05:44:45;;;;;;;;;;;;;;;4.23;100;102762.5;;;;-77
2022/11/26 05:49:34;;;;;;;;;;;;;;;4.23;100;102759.7;;;;-77
2022/11/26 05:54:37;;;;;;;;;;;;;;;4.21;100;102761.3;;;;-76
2022/11/26 05:59:33;;;;;;;;;;;;;;;4.2;100;102766.5;;;;-76
2022/11/26 06:04:32;;;;;;;;;;;;;;;4.18;100;102764.1;;;;-76
2022/11/26 06:07:27;;;;;;;7.7;2.4;;;;;;;;;;;;;-76
2022/11/26 06:09:40;;;;;;;;;;;;;;;4.16;100;102774.4;;;;-77
2022/11/26 06:14:49;;;;;;;;;;;;;;;;;;;;;
2022/11/26 06:19:34;;;;;;;;;;;;;;;4.14;100;102781;;;;-76
2022/11/26 06:24:34;;;;;;;;;;;;;;;4.13;100;102782.2;;;;-77
2022/11/26 06:29:35;;;;;;;;;;;;;;;4.15;100;102782.8;;;;-76
2022/11/26 06:34:28;;;;;;;;;;;;;;;4.15;100;102787.5;;;;-78
2022/11/26 06:37:25;;;;;;;9.8;2.8;;;;;;;;;;;;;-77
2022/11/26 06:39:31;;;;;;;;;;;;;;;4.16;100;102789;;;;-77
2022/11/26 06:44:29;;;;;;;;;;;;;;;4.18;100;102794;;;;-77
2022/11/26 06:49:50;;;;;;;;;;;;;;;4.18;100;102794.4;;;;-76
2022/11/26 06:54:36;;;;;;;;;;;;;;;4.21;100;102790;;;;-76
2022/11/26 06:59:32;;;;;;;;;;;;;;;4.19;100;102803;;;;-76
2022/11/26 07:07:36;;;;;;;7.9;2.8;;;;;;;;;;;;;-77
2022/11/26 07:14:47;;;;;;;;;;;;;;;4.31;100;102824.3;;;;-77
2022/11/26 07:19:29;;;;;;;;;;;;;;;4.38;100;102826;;;;-77
2022/11/26 07:24:42;;;;;;;;;;;;;;;4.44;100;102832.7;;;;-77
2022/11/26 07:29:53;;;;;;;;;;;;;;;4.52;100;102832.2;;;;-77
2022/11/26 07:34:38;;;;;;;;;;;;;;;4.6;100;102832.4;;;;-76
2022/11/26 07:37:21;;;;;;;15;4.4;;;;;;;;;;;;;-76
2022/11/26 07:39:37;;;;;;;;;;;;;;;4.72;100;102829.7;;;;-76
2022/11/26 07:49:38;;;;;;;;;;;;;;;4.81;100;102831.4;;;;-77
2022/11/26 07:54:42;;;;;;;;;;;;;;;4.97;100;102843.4;;;;-78
2022/11/26 07:59:47;;;;;;;;;;;;;;;;;;;;;
2022/11/26 08:04:38;;;;;;;;;;;;;;;5.06;100;102836.6;;;;-77
2022/11/26 08:07:28;;;;;;;;;;;;;;;5.18;100;102830.3;;;;-75
2022/11/26 08:17:07;;;;;;;;;;;;;;;5.24;100;102839.8;;;;-77
2022/11/26 08:32:24;;;;;;;;;;;;;;;5.43;100;102836.5;;;;-76
2022/11/26 08:37:45;;;;;;;17.3;6;;;;;;;;;;;;;-77
2022/11/26 08:42:12;;;;;;;;;;;;;;;5.56;100;102853;;;;-77
2022/11/26 08:47:11;;;;;;;;;;;;;;;5.62;100;102854;;;;-77
2022/11/26 08:52:24;;;;;;;;;;;;;;;5.7;100;102854.4;;;;-76
2022/11/26 08:57:28;;;;;;;;;;;;;;;5.78;100;102855.1;;;;-76
2022/11/26 09:02:18;;;;;;;;;;;;;;;5.87;100;102856.9;;;;-77
2022/11/26 09:07:27;;;;;;;;;;;;;;;5.95;100;102861.8;;;;-75
2022/11/26 09:07:41;;;;;;;20.5;6.1;;;;;;;;;;;;;-75
2022/11/26 09:12:20;;;;;;;;;;;;;;;6.06;100;102862.5;;;;-76
2022/11/26 09:17:17;;;;;;;;;;;;;;;6.16;100;102856;;;;-77
2022/11/26 09:24:32;;;;;;;;;;;;;;;6.33;100;102880.7;;;;-75
2022/11/26 09:35:28;;;;;;;;;;;;;;;6.42;98.91504;102870.5;;;;-77
2022/11/26 09:37:06;;;;;;;;;;;;;;;6.48;98.91699;102872.1;;;;-74
2022/11/26 09:44:38;;;;;;;;;;;;;;;6.58;99.7373;102881.9;;;;-76
2022/11/26 09:53:20;;;;;;;;;;;;;;;6.73;100;102882.4;;;;-76
2022/11/26 09:57:20;;;;;;;;;;;;;;;6.75;99.69824;102889.9;;;;-77
2022/11/26 09:59:59;;;;;;;;;;;;;;;6.8;99.95996;102891.8;;;;-76
2022/11/26 10:27:49;;;;;;;;;;;;;;;;;;;;;
2022/11/26 10:38:14;;;;;;;;;;;;;;;7.33;99.55957;102888.4;;;;-77
2022/11/26 10:42:27;;;;;;;;;;;;;;;7.4;99.32227;102882;;;;-77
2022/11/26 10:52:30;;;;;;;;;;;;;;;7.56;99.16309;102865;;;;-76
2022/11/26 11:00:42;;;;;;;;;;;;;;;7.69;99.83887;102858.2;;;;-78
2022/11/26 11:05:35;;;;;;;;;;;;;;;7.74;100;102855.5;;;;-77
2022/11/26 11:11:01;;;;;;;;;;;;;;;;;;;;;
2022/11/26 11:16:34;;;;;;;;;;;;;;;7.93;99.53223;102862.4;;;;-76
2022/11/26 11:18:12;;;;;;;;;;;;;;;7.88;99.45605;102856.9;;;;-74
2022/11/26 11:25:46;;;;;;;;;;;;;;;7.87;100;102862.3;;;;-76
2022/11/26 11:30:45;;;;;;;;;;;;;;;7.91;99.73633;102873.9;;;;-75
2022/11/26 11:35:34;;;;;;;;;;;;;;;7.98;100;102872.4;;;;-76
2022/11/26 11:37:27;;;;;;;17.5;6.5;;;;;;;;;;;;;-77
2022/11/26 11:40:43;;;;;;;;;;;;;;;8.01;99.49609;102864.3;;;;-74
2022/11/26 11:45:43;;;;;;;;;;;;;;;8.09;99.75391;102857.2;;;;-77
2022/11/26 11:50:38;;;;;;;;;;;;;;;8.15;100;102848.8;;;;-75
2022/11/26 11:55:45;;;;;;;;;;;;;;;8.17;99.76172;102839.5;;;;-77
2022/11/26 12:00:37;;;;;;;;;;;;;;;8.26;100;102843.7;;;;-75
2022/11/26 12:05:48;;;;;;;;;;;;;;;8.3;99.78223;102851.5;;;;-77
2022/11/26 12:07:31;;;;;;;22.1;6.6;;;;;;;;;;;;;-77
2022/11/26 12:10:44;;;;;;;;;;;;;;;8.32;99.74219;102842.4;;;;-77
2022/11/26 12:15:53;;;;;;;;;;;;;;;8.39;100;102844.3;;;;-77
2022/11/26 12:25:37;;;;;;;;;;;;;;;8.43;99.50391;102835.4;;;;-77
2022/11/26 12:30:43;;;;;;;;;;;;;;;8.46;99.40137;102833.8;;;;-77
2022/11/26 12:35:38;;;;;;;;;;;;;;;8.5;99.5625;102836.4;;;;-76
2022/11/26 12:40:41;;;;;;;;;;;;;;;8.53;99.38281;102831.5;;;;-76
2022/11/26 12:45:43;;;;;;;;;;;;;;;8.56;99.52246;102829.5;;;;-75
2022/11/26 12:50:40;;;;;;;;;;;;;;;8.6;99.80664;102818.1;;;;-77
2022/11/26 12:55:39;;;;;;;;;;;;;;;8.65;99.77539;102816.1;;;;-76
2022/11/26 13:00:37;;;;;;;;;;;;;;;8.77;99.8877;102812.3;;;;-75
2022/11/26 13:05:37;;;;;;;;;;;;;;;8.86;99.6123;102806.4;;;;-76
2022/11/26 13:07:23;;;;;;;20;6.5;;;;;;;;;;;;;-76
2022/11/26 13:10:42;;;;;;;;;;;;;;;8.99;99.80566;102799.9;;;;-78
2022/11/26 13:15:39;;;;;;;;;;;;;;;9.02;99.44141;102789.2;;;;-76
2022/11/26 13:20:50;;;;;;;;;;;;;;;9.01;99.13281;102788.5;;;;-77
2022/11/26 13:25:54;;;;;;;;;;;;;;;9.1;99.2168;102788;;;;-76
2022/11/26 13:30:59;;;;;;;;;;;;;;;9.12;99.98828;102782.2;;;;-77
2022/11/26 13:35:57;;;;;;;;;;;;;;;9.06;99.52637;102783.4;;;;-76
2022/11/26 13:37:42;;;;;;;18.6;6.2;;;;;;;;;;;;;-76
2022/11/26 13:40:50;;;;;;;;;;;;;;;9.07;99.19824;102780.8;;;;-76
2022/11/26 13:46:03;;;;;;;;;;;;;;;9.11;99.51758;102779.2;;;;-75
2022/11/26 13:49:50;;;;;;;;;;;;;;;9;99.64648;102775;;;;-77
2022/11/26 13:54:50;;;;;;;;;;;;;;;8.95;99.91895;102770.2;;;;-75
2022/11/26 13:59:51;;;;;;;;;;;;;;;8.89;99.66309;102772.3;;;;-76
2022/11/26 14:07:00;;;;;;;;;;;;;;;8.94;99.68652;102770.3;;;;-75
2022/11/26 14:07:30;;;;;;;17.9;5.8;;;;;;;;;;;;;-75
2022/11/26 14:11:55;;;;;;;;;;;;;;;8.84;99.83887;102776.1;;;;-76
2022/11/26 14:16:51;;;;;;;;;;;;;;;8.82;99.49316;102777.7;;;;-76
2022/11/26 14:21:46;;;;;;;;;;;;;;;8.81;99.65723;102778.4;;;;-76
2022/11/26 14:26:37;;;;;;;;;;;;;;;8.78;99.88086;102781;;;;-76
2022/11/26 14:31:36;;;;;;;;;;;;;;;8.75;100;102765.6;;;;-77
2022/11/26 14:36:36;;;;;;;;;;;;;;;8.73;100;102761.5;;;;-75
2022/11/26 14:37:28;;;;;;;14.4;5;;;;;;;;;;;;;-75
2022/11/26 14:46:38;;;;;;;;;;;;;;;8.7;100;102778.3;;;;-76
2022/11/26 14:57:54;;;;;;;;;;;;;;;8.74;100;102784.2;;;;-76
2022/11/26 15:01:00;;;;;;;;;;;;;;;8.62;100;102780.4;;;;-76
2022/11/26 15:06:01;;;;;;;;;;;;;;;8.56;100;102781.3;;;;-76
2022/11/26 15:07:26;;;;;;;15.8;4.9;;;;;;;;;;;;;-76
2022/11/26 15:11:09;;;;;;;;;;;;;;;8.51;100;102779.4;;;;-76
2022/11/26 15:15:57;;;;;;;;;;;;;;;8.45;100;102771;;;;-76
2022/11/26 15:20:53;;;;;;;;;;;;;;;8.4;100;102771.7;;;;-76
2022/11/26 15:25:53;;;;;;;;;;;;;;;8.31;100;102765.9;;;;-76
2022/11/26 15:31:00;;;;;;;;;;;;;;;8.27;100;102763.4;;;;-75
2022/11/26 15:35:56;;;;;;;;;;;;;;;8.2;100;102767.8;;;;-76
2022/11/26 15:37:18;;;;;;;17.2;4.5;;;;;;;;;;;;;-76
2022/11/26 15:40:52;;;;;;;;;;;;;;;8.12;100;102770.1;;;;-75
2022/11/26 15:45:50;;;;;;;;;;;;;;;8.03;100;102771.2;;;;-77
2022/11/26 15:50:52;;;;;;;;;;;;;;;7.95;100;102767.9;;;;-77
2022/11/26 15:55:56;;;;;;;;;;;;;;;7.88;100;102773.8;;;;-76
2022/11/26 16:00:53;;;;;;;;;;;;;;;7.83;100;102772.4;;;;-77
2022/11/26 16:06:06;;;;;;;;;;;;;;;7.79;100;102762.7;;;;-76
2022/11/26 16:07:20;;;;;;;16.3;4.3;;;;;;;;;;;;;-76
2022/11/26 16:11:18;;;;;;;;;;;;;;;7.76;100;102762.5;;;;-77
2022/11/26 16:20:50;;;;;;;;;;;;;;;7.72;100;102759.8;;;;-72
2022/11/26 16:26:00;;;;;;;;;;;;;;;7.71;100;102760.4;;;;-76
2022/11/26 16:30:50;;;;;;;;;;;;;;;7.69;100;102760.9;;;;-77
2022/11/26 16:35:50;;;;;;;;;;;;;;;7.68;100;102754.3;;;;-77
2022/11/26 16:37:23;;;;;;;16.6;4.9;;;;;;;;;;;;;-77
2022/11/26 16:40:50;;;;;;;;;;;;;;;7.67;100;102751.9;;;;-77
2022/11/26 16:45:53;;;;;;;;;;;;;;;7.67;100;102756.6;;;;-77
2022/11/26 16:50:52;;;;;;;;;;;;;;;7.66;100;102756.4;;;;-77
2022/11/26 16:55:50;;;;;;;;;;;;;;;7.63;100;102760.3;;;;-75
2022/11/26 17:00:50;;;;;;;;;;;;;;;7.63;100;102759;;;;-76
2022/11/26 17:05:51;;;;;;;;;;;;;;;7.63;100;102761.1;;;;-77
2022/11/26 17:07:20;;;;;;;19.4;4.8;;;;;;;;;;;;;-77
2022/11/26 17:10:50;;;;;;;;;;;;;;;7.59;100;102756;;;;-77
2022/11/26 17:15:50;;;;;;;;;;;;;;;7.58;100;102744.6;;;;-76
2022/11/26 17:20:50;;;;;;;;;;;;;;;7.56;100;102737.6;;;;-76
2022/11/26 17:25:53;;;;;;;;;;;;;;;7.54;100;102725.9;;;;-76
2022/11/26 17:30:50;;;;;;;;;;;;;;;7.54;100;102723.8;;;;-76
2022/11/26 17:35:51;;;;;;;;;;;;;;;7.53;100;102730.4;;;;-77
2022/11/26 17:37:21;;;;;;;15.8;4.3;;;;;;;;;;;;;-76
2022/11/26 17:40:50;;;;;;;;;;;;;;;7.52;100;102730.4;;;;-76
2022/11/26 17:45:50;;;;;;;;;;;;;;;7.49;100;102721.7;;;;-76
2022/11/26 17:50:50;;;;;;;;;;;;;;;7.45;100;102714.3;;;;-77
2022/11/26 17:55:50;;;;;;;;;;;;;;;7.41;100;102715.4;;;;-75
2022/11/26 18:00:54;;;;;;;;;;;;;;;7.38;100;102706.6;;;;-77
2022/11/26 18:05:50;;;;;;;;;;;;;;;7.35;100;102705.2;;;;-76
2022/11/26 18:07:20;;;;;;;11.4;4.1;;;;;;;;;;;;;-76
2022/11/26 18:10:51;;;;;;;;;;;;;;;7.31;100;102697.1;;;;-77
2022/11/26 18:15:50;;;;;;;;;;;;;;;7.31;100;102694.5;;;;-76
2022/11/26 18:20:50;;;;;;;;;;;;;;;7.28;100;102690.7;;;;-77
2022/11/26 18:25:50;;;;;;;;;;;;;;;7.26;100;102690.5;;;;-78
2022/11/26 18:30:50;;;;;;;;;;;;;;;7.24;100;102682.7;;;;-76
2022/11/26 18:35:55;;;;;;;;;;;;;;;7.22;100;102677.5;;;;-77
2022/11/26 18:37:36;;;;;;;10.6;3.3;;;;;;;;;;;;;-77
2022/11/26 18:41:02;;;;;;;;;;;;;;;7.2;100;102665.6;;;;-77
2022/11/26 18:45:54;;;;;;;;;;;;;;;7.2;100;102666.1;;;;-76
2022/11/26 18:50:58;;;;;;;;;;;;;;;7.17;100;102665.8;;;;-76
2022/11/26 18:56:06;;;;;;;;;;;;;;;7.15;100;102654;;;;-77
2022/11/26 19:06:17;;;;;;;;;;;;;;;7.09;100;102648.7;;;;-77
2022/11/26 19:07:24;;;;;;;15.1;3.8;;;;;;;;;;;;;-75
2022/11/26 19:10:50;;;;;;;;;;;;;;;7.04;100;102660.1;;;;-76
2022/11/26 19:15:53;;;;;;;;;;;;;;;7.01;100;102668.8;;;;-76
2022/11/26 19:20:56;;;;;;;;;;;;;;;6.96;100;102672.2;;;;-76
2022/11/26 19:25:50;;;;;;;;;;;;;;;6.93;100;102667.2;;;;-76
2022/11/26 19:30:58;;;;;;;;;;;;;;;6.87;100;102675.9;;;;-76
2022/11/26 19:35:50;;;;;;;;;;;;;;;6.86;100;102681.9;;;;-76
2022/11/26 19:37:20;;;;;;;14.7;3.7;;;;;;;;;;;;;-75
2022/11/26 19:40:50;;;;;;;;;;;;;;;6.81;100;102680.9;;;;-75
2022/11/26 19:45:50;;;;;;;;;;;;;;;6.82;100;102685.5;;;;-75
2022/11/26 19:50:56;;;;;;;;;;;;;;;6.81;100;102687.9;;;;-75
2022/11/26 19:55:57;;;;;;;;;;;;;;;6.76;100;102692.1;;;;-76
2022/11/26 20:00:50;;;;;;;;;;;;;;;6.72;100;102702.6;;;;-76
2022/11/26 20:05:50;;;;;;;;;;;;;;;6.71;100;102714.1;;;;-76
2022/11/26 20:07:20;;;;;;;13.4;3.9;;;;;;;;;;;;;-76
2022/11/26 20:10:52;;;;;;;;;;;;;;;6.66;100;102722.8;;;;-76
2022/11/26 20:15:52;;;;;;;;;;;;;;;6.64;100;102727.9;;;;-76
2022/11/26 20:21:00;;;;;;;;;;;;;;;6.6;100;102729.3;;;;-76
2022/11/26 20:25:51;;;;;;;;;;;;;;;6.58;100;102731.1;;;;-75
2022/11/26 20:30:50;;;;;;;;;;;;;;;6.55;100;102733.6;;;;-76
2022/11/26 20:35:50;;;;;;;;;;;;;;;6.53;100;102725.9;;;;-76
2022/11/26 20:37:21;;;;;;;13.5;4.4;;;;;;;;;;;;;-77
2022/11/26 20:40:51;;;;;;;;;;;;;;;6.51;100;102720.2;;;;-76
2022/11/26 20:45:50;;;;;;;;;;;;;;;6.49;100;102721.9;;;;-76
2022/11/26 20:50:50;;;;;;;;;;;;;;;6.42;100;102704.9;;;;-75
2022/11/26 20:55:58;;;;;;;;;;;;;;;6.37;100;102698.3;;;;-77
2022/11/26 21:00:52;;;;;;;;;;;;;;;6.36;100;102684.8;;;;-76
2022/11/26 21:05:50;;;;;;;;;;;;;;;6.32;100;102667.2;;;;-76
2022/11/26 21:07:20;;;;;;;14.1;4.5;;;;;;;;;;;;;-76
2022/11/26 21:10:51;;;;;;;;;;;;;;;6.28;100;102654.3;;;;-76
2022/11/26 21:15:50;;;;;;;;;;;;;;;6.2;100;102630.3;;;;-77
2022/11/26 21:20:50;;;;;;;;;;;;;;;6.14;100;102613.6;;;;-76
2022/11/26 21:25:50;;;;;;;;;;;;;;;6.14;100;102607.8;;;;-76
2022/11/26 21:30:50;;;;;;;;;;;;;;;6.07;100;102600.9;;;;-76
2022/11/26 21:35:50;;;;;;;;;;;;;;;6.03;100;102618.5;;;;-76
2022/11/26 21:37:20;;;;;;;12.4;4.5;;;;;;;;;;;;;-76
2022/11/26 21:40:53;;;;;;;;;;;;;;;5.99;100;102607.4;;;;-76
2022/11/26 21:45:50;;;;;;;;;;;;;;;5.94;100;102595.8;;;;-77
2022/11/26 21:50:50;;;;;;;;;;;;;;;5.95;100;102585.9;;;;-76
2022/11/26 21:55:51;;;;;;;;;;;;;;;5.91;100;102584.1;;;;-76
2022/11/26 22:00:50;;;;;;;;;;;;;;;5.88;100;102572.8;;;;-74
2022/11/26 22:05:50;;;;;;;;;;;;;;;5.83;100;102566.6;;;;-76
2022/11/26 22:07:19;;;;;;;14.5;4.6;;;;;;;;;;;;;-76
2022/11/26 22:10:50;;;;;;;;;;;;;;;5.82;100;102566.6;;;;-75
2022/11/26 22:15:50;;;;;;;;;;;;;;;5.9;100;102553.8;;;;-75
2022/11/26 22:20:56;;;;;;;;;;;;;;;5.86;100;102552.8;;;;-76
2022/11/26 22:25:50;;;;;;;;;;;;;;;5.82;100;102542.1;;;;-76
2022/11/26 22:30:50;;;;;;;;;;;;;;;5.85;100;102537.5;;;;-76
2022/11/26 22:35:50;;;;;;;;;;;;;;;5.88;100;102534.4;;;;-76
2022/11/26 22:37:19;;;;;;;13.3;4.3;;;;;;;;;;;;;-76
2022/11/26 22:40:50;;;;;;;;;;;;;;;5.84;100;102520.6;;;;-77
2022/11/26 22:45:50;;;;;;;;;;;;;;;5.85;100;102520.2;;;;-76
2022/11/26 22:50:56;;;;;;;;;;;;;;;5.84;100;102508;;;;-75
2022/11/26 22:55:55;;;;;;;;;;;;;;;5.8;100;102511.3;;;;-76
2022/11/26 23:00:51;;;;;;;;;;;;;;;5.76;100;102504.7;;;;-76
2022/11/26 23:05:50;;;;;;;;;;;;;;;5.74;100;102497.1;;;;-76
2022/11/26 23:07:19;;;;;;;14.5;4.3;;;;;;;;;;;;;-76
2022/11/26 23:10:50;;;;;;;;;;;;;;;5.72;100;102500.3;;;;-76
2022/11/26 23:15:50;;;;;;;;;;;;;;;5.7;100;102494.3;;;;-75
2022/11/26 23:20:50;;;;;;;;;;;;;;;5.68;100;102494.6;;;;-75
2022/11/26 23:25:50;;;;;;;;;;;;;;;5.69;100;102497.2;;;;-76
2022/11/26 23:30:50;;;;;;;;;;;;;;;5.66;100;102496;;;;-76
2022/11/26 23:35:51;;;;;;;;;;;;;;;5.61;100;102491.6;;;;-77
2022/11/26 23:37:19;;;;;;;14.9;4.2;;;;;;;;;;;;;-77
2022/11/26 23:40:54;;;;;;;;;;;;;;;5.6;100;102492.1;;;;-76
2022/11/26 23:45:50;;;;;;;;;;;;;;;5.57;100;102496.4;;;;-75
2022/11/26 23:50:53;;;;;;;;;;;;;;;5.55;100;102493.4;;;;-76
2022/11/26 23:55:55;;;;;;;;;;;;;;;5.51;100;102483.3;;;;-76
